createdAt,value
2022-10-10T00:00:48.496Z,101541.25
2022-10-10T00:03:14.885Z,101543.22
2022-10-10T00:05:41.969Z,101536.38
2022-10-10T00:08:08.925Z,101537.03
2022-10-10T00:10:35.363Z,101532.81
2022-10-10T00:13:02.235Z,101528.41
2022-10-10T00:15:28.894Z,101520.25
2022-10-10T00:17:55.308Z,101528.41
2022-10-10T00:20:21.750Z,101528.72
2022-10-10T00:22:48.734Z,101524.50
2022-10-10T00:25:15.413Z,101531.16
2022-10-10T00:27:41.747Z,101520.56
2022-10-10T00:30:08.650Z,101526.94
2022-10-10T00:32:35.988Z,101517.50
2022-10-10T00:35:03.042Z,101521.09
2022-10-10T00:37:29.536Z,101514.75
2022-10-10T00:39:55.834Z,101509.41
2022-10-10T00:42:22.070Z,101509.41
2022-10-10T00:45:27.045Z,101506.81
2022-10-10T00:48:00.637Z,101501.75
2022-10-10T00:50:28.666Z,101499.66
2022-10-10T00:52:55.747Z,101488.75
2022-10-10T00:55:22.111Z,101491.38
2022-10-10T00:57:50.085Z,101476.13
2022-10-10T01:00:16.863Z,101490.75
2022-10-10T01:02:43.164Z,101479.22
2022-10-10T01:05:09.381Z,101485.75
2022-10-10T01:07:36.054Z,101483.97
2022-10-10T01:10:10.484Z,101475.34
2022-10-10T01:12:58.382Z,101477.63
2022-10-10T01:15:35.974Z,101467.06
2022-10-10T01:18:14.994Z,101474.22
2022-10-10T01:20:53.139Z,101469.03
2022-10-10T01:23:28.278Z,101475.56
2022-10-10T01:26:05.206Z,101463.69
2022-10-10T01:28:53.389Z,101475.72
2022-10-10T01:31:24.160Z,101458.00
2022-10-10T01:34:03.774Z,101468.91
2022-10-10T01:36:39.312Z,101469.88
2022-10-10T01:39:13.029Z,101454.41
2022-10-10T01:41:45.927Z,101463.69
2022-10-10T01:44:12.234Z,101458.00
2022-10-10T01:46:38.469Z,101464.81
2022-10-10T01:49:04.953Z,101454.88
2022-10-10T01:52:01.054Z,101448.22
2022-10-10T01:54:57.644Z,101453.28
2022-10-10T01:57:54.777Z,101444.97
2022-10-10T02:00:21.357Z,101443.31
2022-10-10T02:02:50.649Z,101445.78
2022-10-10T02:05:20.074Z,101437.16
2022-10-10T02:07:53.262Z,101426.91
2022-10-10T02:10:28.464Z,101428.53
2022-10-10T02:12:57.268Z,101430.81
2022-10-10T02:15:27.387Z,101429.50
2022-10-10T02:17:57.205Z,101417.13
2022-10-10T02:20:26.394Z,101431.75
2022-10-10T02:22:54.519Z,101417.44
2022-10-10T02:25:26.723Z,101426.72
2022-10-10T02:28:03.434Z,101417.28
2022-10-10T02:30:31.884Z,101416.97
2022-10-10T02:33:03.247Z,101410.00
2022-10-10T02:35:35.598Z,101403.00
2022-10-10T02:38:02.750Z,101403.81
2022-10-10T02:40:31.717Z,101401.19
2022-10-10T02:43:02.178Z,101408.03
2022-10-10T02:45:30.746Z,101403.50
2022-10-10T02:47:57.116Z,101386.25
2022-10-10T02:50:23.674Z,101393.09
2022-10-10T02:52:50.207Z,101394.56
2022-10-10T02:55:16.948Z,101393.41
2022-10-10T02:57:43.276Z,101389.72
2022-10-10T03:00:09.815Z,101392.13
2022-10-10T03:02:36.189Z,101387.91
2022-10-10T03:05:03.907Z,101389.22
2022-10-10T03:07:31.900Z,101367.91
2022-10-10T03:09:58.149Z,101384.03
2022-10-10T03:12:24.476Z,101376.06
2022-10-10T03:14:50.718Z,101381.78
2022-10-10T03:17:17.296Z,101383.06
2022-10-10T03:19:43.667Z,101376.56
2022-10-10T03:22:10.244Z,101375.94
2022-10-10T03:24:36.558Z,101378.72
2022-10-10T03:27:02.822Z,101373.00
2022-10-10T03:29:29.149Z,101381.16
2022-10-10T03:31:55.924Z,101378.22
2022-10-10T03:34:22.293Z,101373.34
2022-10-10T03:36:48.603Z,101372.03
2022-10-10T03:39:14.863Z,101374.13
2022-10-10T03:41:41.165Z,101369.28
2022-10-10T03:44:07.391Z,101370.41
2022-10-10T03:46:33.742Z,101373.66
2022-10-10T03:49:00.070Z,101374.78
2022-10-10T03:51:26.296Z,101369.41
2022-10-10T03:53:54.244Z,101371.69
2022-10-10T03:56:20.591Z,101365.19
2022-10-10T03:58:46.953Z,101365.00
2022-10-10T04:01:13.368Z,101372.97
2022-10-10T04:03:39.844Z,101368.75
2022-10-10T04:06:07.241Z,101375.59
2022-10-10T04:08:33.551Z,101354.13
2022-10-10T04:10:59.850Z,101366.63
2022-10-10T04:13:26.311Z,101364.66
2022-10-10T04:15:54.185Z,101356.56
2022-10-10T04:18:21.856Z,101362.22
2022-10-10T04:20:48.165Z,101357.50
2022-10-10T04:23:14.424Z,101369.56
2022-10-10T04:25:40.728Z,101372.16
2022-10-10T04:28:07.041Z,101369.41
2022-10-10T04:30:34.466Z,101364.00
2022-10-10T04:33:01.024Z,101369.72
2022-10-10T04:35:27.343Z,101354.09
2022-10-10T04:37:53.702Z,101361.41
2022-10-10T04:40:25.453Z,101361.75
2022-10-10T04:42:52.808Z,101361.91
2022-10-10T04:45:19.342Z,101349.88
2022-10-10T04:47:45.682Z,101356.72
2022-10-10T04:50:12.272Z,101354.94
2022-10-10T04:52:38.572Z,101355.59
2022-10-10T04:55:05.097Z,101365.34
2022-10-10T04:57:31.420Z,101356.41
2022-10-10T04:59:57.716Z,101362.41
2022-10-10T05:02:23.942Z,101359.50
2022-10-10T05:04:50.229Z,101350.91
2022-10-10T05:07:16.716Z,101348.47
2022-10-10T05:09:43.004Z,101342.13
2022-10-10T05:12:09.204Z,101350.09
2022-10-10T05:14:35.527Z,101341.31
2022-10-10T05:17:01.846Z,101347.97
2022-10-10T05:19:28.084Z,101347.34
2022-10-10T05:21:54.397Z,101352.00
2022-10-10T05:24:20.632Z,101347.63
2022-10-10T05:26:46.993Z,101346.97
2022-10-10T05:29:13.373Z,101337.88
2022-10-10T05:31:39.765Z,101345.81
2022-10-10T05:34:06.104Z,101334.47
2022-10-10T05:36:32.382Z,101340.63
2022-10-10T05:38:58.664Z,101342.09
2022-10-10T05:41:24.927Z,101335.91
2022-10-10T05:43:51.359Z,101338.66
2022-10-10T05:46:17.709Z,101331.34
2022-10-10T05:48:44.003Z,101339.50
2022-10-10T05:51:10.366Z,101346.16
2022-10-10T05:53:36.647Z,101340.16
2022-10-10T05:56:02.861Z,101339.84
2022-10-10T05:58:29.184Z,101345.69
2022-10-10T06:00:55.440Z,101338.38
2022-10-10T06:03:21.817Z,101338.53
2022-10-10T06:05:51.666Z,101333.97
2022-10-10T06:08:18.101Z,101336.88
2022-10-10T06:10:45.786Z,101339.94
2022-10-10T06:13:14.826Z,101340.03
2022-10-10T06:15:41.953Z,101338.78
2022-10-10T06:18:09.246Z,101338.03
2022-10-10T06:20:40.751Z,101339.91
2022-10-10T06:23:08.386Z,101341.72
2022-10-10T06:25:40.424Z,101331.53
2022-10-10T06:28:08.459Z,101342.00
2022-10-10T06:30:40.070Z,101348.47
2022-10-10T06:33:06.382Z,101338.00
2022-10-10T06:35:32.882Z,101328.34
2022-10-10T06:37:59.190Z,101350.28
2022-10-10T06:40:25.621Z,101347.97
2022-10-10T06:42:52.274Z,101342.28
2022-10-10T06:45:18.737Z,101361.47
2022-10-10T06:47:45.065Z,101352.06
2022-10-10T06:50:11.404Z,101346.94
2022-10-10T06:52:37.737Z,101358.09
2022-10-10T06:55:04.384Z,101358.59
2022-10-10T06:57:30.695Z,101359.25
2022-10-10T06:59:57.010Z,101360.28
2022-10-10T07:02:23.385Z,101355.03
2022-10-10T07:04:49.883Z,101357.88
2022-10-10T07:07:16.658Z,101343.97
2022-10-10T07:09:43.058Z,101361.56
2022-10-10T07:12:09.373Z,101360.34
2022-10-10T07:14:35.722Z,101353.84
2022-10-10T07:17:02.025Z,101358.59
2022-10-10T07:19:28.314Z,101358.06
2022-10-10T07:21:54.673Z,101365.38
2022-10-10T07:24:21.047Z,101353.84
2022-10-10T07:26:47.413Z,101351.53
2022-10-10T07:29:13.733Z,101371.19
2022-10-10T07:31:40.098Z,101366.78
2022-10-10T07:34:06.466Z,101372.00
2022-10-10T07:36:32.780Z,101374.56
2022-10-10T07:38:59.101Z,101377.06
2022-10-10T07:41:25.419Z,101368.22
2022-10-10T07:43:56.082Z,101374.91
2022-10-10T07:46:22.977Z,101376.25
2022-10-10T07:48:49.296Z,101384.09
2022-10-10T07:51:15.922Z,101374.53
2022-10-10T07:53:42.239Z,101390.69
2022-10-10T07:56:09.714Z,101389.75
2022-10-10T07:58:36.576Z,101381.97
2022-10-10T08:01:08.563Z,101390.78
2022-10-10T08:03:35.344Z,101380.47
2022-10-10T08:06:07.422Z,101385.16
2022-10-10T08:08:37.821Z,101392.03
2022-10-10T08:11:10.719Z,101390.56
2022-10-10T08:13:38.341Z,101394.81
2022-10-10T08:16:05.402Z,101392.94
2022-10-10T08:18:31.930Z,101388.38
2022-10-10T08:21:05.393Z,101381.66
2022-10-10T08:23:31.766Z,101393.94
2022-10-10T08:25:59.432Z,101395.69
2022-10-10T08:28:26.404Z,101395.88
2022-10-10T08:30:52.925Z,101388.38
2022-10-10T08:33:19.289Z,101396.59
2022-10-10T08:35:45.603Z,101396.47
2022-10-10T08:38:12.174Z,101401.97
2022-10-10T08:40:45.241Z,101387.13
2022-10-10T08:43:21.131Z,101386.16
2022-10-10T08:45:48.401Z,101389.75
2022-10-10T08:48:18.847Z,101380.19
2022-10-10T08:50:54.611Z,101381.28
2022-10-10T08:53:43.456Z,101391.69
2022-10-10T08:56:16.508Z,101394.34
2022-10-10T08:58:46.847Z,101388.75
2022-10-10T09:02:18.526Z,101395.09
2022-10-10T09:04:29.085Z,101394.28
2022-10-10T09:07:13.207Z,101397.06
2022-10-10T09:09:51.678Z,101389.41
2022-10-10T09:12:38.258Z,101383.25
2022-10-10T09:15:45.134Z,101387.31
2022-10-10T09:18:39.956Z,101392.41
2022-10-10T09:21:20.394Z,101376.38
2022-10-10T09:24:03.081Z,101372.94
2022-10-10T09:26:37.666Z,101384.94
2022-10-10T09:29:32.138Z,101395.63
2022-10-10T09:32:13.662Z,101401.69
2022-10-10T09:34:45.394Z,101396.38
2022-10-10T09:37:24.256Z,101390.78
2022-10-10T09:40:25.419Z,101397.94
2022-10-10T09:42:52.018Z,101389.69
2022-10-10T09:45:19.866Z,101401.69
2022-10-10T09:47:53.891Z,101408.84
2022-10-10T09:50:20.740Z,101396.22
2022-10-10T09:52:48.226Z,101406.25
2022-10-10T09:55:30.018Z,101412.50
2022-10-10T09:58:02.247Z,101419.84
2022-10-10T10:00:34.938Z,101424.75
2022-10-10T10:03:19.342Z,101411.28
2022-10-10T10:05:59.204Z,101428.94
2022-10-10T10:08:31.661Z,101417.56
2022-10-10T10:10:59.061Z,101413.38
2022-10-10T10:13:30.323Z,101414.81
2022-10-10T10:16:07.207Z,101418.91
2022-10-10T10:18:45.274Z,101425.16
2022-10-10T10:21:21.106Z,101418.09
2022-10-10T10:24:00.958Z,101428.16
2022-10-10T10:26:47.549Z,101428.59
2022-10-10T10:29:28.780Z,101431.38
2022-10-10T10:32:23.038Z,101429.38
2022-10-10T10:35:24.393Z,101434.31
2022-10-10T10:38:24.183Z,101445.91
2022-10-10T10:41:08.995Z,101452.25
2022-10-10T10:43:49.323Z,101447.75
2022-10-10T10:46:31.108Z,101446.09
2022-10-10T10:49:23.208Z,101451.13
2022-10-10T10:52:01.138Z,101443.72
2022-10-10T10:55:05.305Z,101449.91
2022-10-10T10:58:00.104Z,101436.00
2022-10-10T11:05:20.603Z,101446.38
2022-10-10T11:06:32.460Z,101442.16
2022-10-10T11:09:31.224Z,101449.13
2022-10-10T11:12:26.891Z,101446.28
2022-10-10T11:15:16.333Z,101460.22
2022-10-10T11:17:50.661Z,101457.25
2022-10-10T11:20:38.582Z,101457.13
2022-10-10T11:23:12.518Z,101466.63
2022-10-10T11:25:56.746Z,101464.69
2022-10-10T11:28:48.605Z,101468.09
2022-10-10T11:31:27.862Z,101472.78
2022-10-10T11:33:59.546Z,101476.31
2022-10-10T11:36:29.884Z,101471.09
2022-10-10T11:39:17.257Z,101467.50
2022-10-10T11:41:55.398Z,101474.28
2022-10-10T11:44:27.676Z,101485.84
2022-10-10T11:47:00.179Z,101485.16
2022-10-10T11:49:45.935Z,101480.00
2022-10-10T11:52:40.546Z,101478.00
2022-10-10T11:55:22.295Z,101486.34
2022-10-10T11:58:08.818Z,101488.91
2022-10-10T12:00:50.233Z,101491.00
2022-10-10T12:03:16.582Z,101496.97
2022-10-10T12:05:52.638Z,101493.75
2022-10-10T12:08:25.907Z,101489.94
2022-10-10T12:10:59.822Z,101493.41
2022-10-10T12:13:43.163Z,101491.47
2022-10-10T12:16:20.913Z,101498.44
2022-10-10T12:18:54.904Z,101492.09
2022-10-10T12:21:25.560Z,101484.88
2022-10-10T12:24:12.825Z,101478.22
2022-10-10T12:26:54.370Z,101481.03
2022-10-10T12:29:56.239Z,101477.25
2022-10-10T12:32:22.456Z,101490.53
2022-10-10T12:34:48.706Z,101481.81
2022-10-10T12:37:24.702Z,101495.91
2022-10-10T12:40:06.187Z,101493.88
2022-10-10T12:42:47.845Z,101491.59
2022-10-10T12:45:29.358Z,101487.63
2022-10-10T12:48:17.758Z,101496.75
2022-10-10T12:50:56.399Z,101500.00
2022-10-10T12:53:25.733Z,101501.88
2022-10-10T12:55:55.189Z,101505.91
2022-10-10T12:58:29.141Z,101515.81
2022-10-10T13:00:58.793Z,101506.63
2022-10-10T13:03:34.638Z,101510.59
2022-10-10T13:06:23.406Z,101522.94
2022-10-10T13:08:53.491Z,101524.53
2022-10-10T13:11:19.809Z,101523.28
2022-10-10T13:13:51.389Z,101527.28
2022-10-10T13:16:20.476Z,101539.50
2022-10-10T13:18:54.887Z,101538.56
2022-10-10T13:21:34.022Z,101548.09
2022-10-10T13:24:03.995Z,101550.38
2022-10-10T13:26:43.422Z,101553.94
2022-10-10T13:29:32.408Z,101554.03
2022-10-10T13:32:03.197Z,101571.53
2022-10-10T13:34:36.650Z,101568.38
2022-10-10T13:37:05.328Z,101566.84
2022-10-10T13:39:34.128Z,101571.56
2022-10-10T13:42:00.709Z,101567.41
2022-10-10T13:44:50.554Z,101569.91
2022-10-10T13:47:45.976Z,101564.72
2022-10-10T13:50:21.482Z,101574.94
2022-10-10T13:52:47.852Z,101587.56
2022-10-10T13:55:27.111Z,101575.34
2022-10-10T13:57:58.239Z,101581.91
2022-10-10T14:00:27.408Z,101576.09
2022-10-10T14:02:53.755Z,101589.72
2022-10-10T14:05:30.188Z,101592.00
2022-10-10T14:07:57.938Z,101586.44
2022-10-10T14:10:27.274Z,101591.94
2022-10-10T14:12:57.315Z,101595.81
2022-10-10T14:15:46.806Z,101606.59
2022-10-10T14:18:22.143Z,101598.63
2022-10-10T14:20:49.842Z,101626.47
2022-10-10T14:23:16.576Z,101632.56
2022-10-10T14:25:45.983Z,101648.91
2022-10-10T14:28:21.048Z,101662.91
2022-10-10T14:30:47.505Z,101667.38
2022-10-10T14:33:16.433Z,101686.00
2022-10-10T14:35:43.576Z,101687.81
2022-10-10T14:38:11.202Z,101707.47
2022-10-10T14:40:37.746Z,101694.47
2022-10-10T14:43:04.078Z,101713.88
2022-10-10T14:45:30.374Z,101725.63
2022-10-10T14:47:56.710Z,101722.13
2022-10-10T14:50:26.183Z,101733.25
2022-10-10T14:52:52.558Z,101734.19
2022-10-10T14:55:19.088Z,101742.25
2022-10-10T14:57:45.423Z,101757.63
2022-10-10T15:00:15.848Z,101761.03
2022-10-10T15:02:45.628Z,101741.16
2022-10-10T15:05:12.769Z,101756.56
2022-10-10T15:07:39.319Z,101754.78
2022-10-10T15:12:52.818Z,101761.66
2022-10-10T15:15:19.214Z,101761.03
2022-10-10T15:17:45.586Z,101772.16
2022-10-10T15:20:13.030Z,101774.63
2022-10-10T15:22:39.728Z,101763.88
2022-10-10T15:25:07.528Z,101780.91
2022-10-10T15:27:34.143Z,101782.34
2022-10-10T15:30:00.639Z,101790.47
2022-10-10T15:32:27.058Z,101789.06
2022-10-10T15:34:53.731Z,101793.66
2022-10-10T15:37:20.102Z,101789.25
2022-10-10T15:39:46.425Z,101805.28
2022-10-10T15:42:17.297Z,101804.50
2022-10-10T15:44:48.439Z,101814.66
2022-10-10T15:47:16.305Z,101819.50
2022-10-10T15:49:43.045Z,101817.28
2022-10-10T15:52:09.842Z,101823.56
2022-10-10T15:54:36.201Z,101820.31
2022-10-10T15:57:02.898Z,101829.84
2022-10-10T15:59:29.421Z,101841.13
2022-10-10T16:01:55.855Z,101845.97
2022-10-10T16:04:22.537Z,101846.75
2022-10-10T16:06:59.315Z,101840.06
2022-10-10T16:09:38.725Z,101850.16
2022-10-10T16:12:05.529Z,101857.44
2022-10-10T16:14:32.416Z,101863.50
2022-10-10T16:17:02.322Z,101865.69
2022-10-10T16:19:28.653Z,101861.00
2022-10-10T16:21:54.981Z,101865.38
2022-10-10T16:24:21.315Z,101874.47
2022-10-10T16:26:47.613Z,101886.41
2022-10-10T16:29:13.928Z,101887.19
2022-10-10T16:31:40.282Z,101879.81
2022-10-10T16:34:07.335Z,101892.75
2022-10-10T16:36:36.022Z,101899.59
2022-10-10T16:39:03.038Z,101900.75
2022-10-10T16:41:47.459Z,101909.59
2022-10-10T16:44:14.353Z,101912.19
2022-10-10T16:46:40.655Z,101923.59
2022-10-10T16:49:07.014Z,101919.91
2022-10-10T16:51:33.391Z,101926.69
2022-10-10T16:54:00.831Z,101931.91
2022-10-10T16:56:27.977Z,101938.47
2022-10-10T16:58:54.597Z,101947.31
2022-10-10T17:01:22.730Z,101942.81
2022-10-10T17:03:50.087Z,101951.69
2022-10-10T17:06:19.380Z,101951.50
2022-10-10T17:08:47.513Z,101962.19
2022-10-10T17:11:14.512Z,101969.25
2022-10-10T17:13:41.772Z,101974.25
2022-10-10T17:16:47.937Z,101978.34
2022-10-10T17:18:59.327Z,101981.78
2022-10-10T17:21:25.642Z,101989.53
2022-10-10T17:23:52.582Z,101994.25
2022-10-10T17:26:21.201Z,101990.28
2022-10-10T17:28:47.740Z,101999.38
2022-10-10T17:31:15.040Z,102007.78
2022-10-10T17:33:43.557Z,101995.47
2022-10-10T17:36:13.143Z,102008.28
2022-10-10T17:38:40.463Z,102021.75
2022-10-10T17:41:09.708Z,102027.88
2022-10-10T17:43:36.074Z,102034.78
2022-10-10T17:46:32.535Z,102042.69
2022-10-10T17:48:51.846Z,102034.53
2022-10-10T17:51:20.098Z,102037.38
2022-10-10T17:53:46.405Z,102041.50
2022-10-10T17:56:18.158Z,102047.38
2022-10-10T17:58:46.738Z,102058.38
2022-10-10T18:01:15.085Z,102062.34
2022-10-10T18:03:41.805Z,102059.41
2022-10-10T18:06:11.716Z,102068.75
2022-10-10T18:08:38.602Z,102065.38
2022-10-10T18:11:08.534Z,102076.81
2022-10-10T18:13:37.342Z,102070.00
2022-10-10T18:16:14.590Z,102077.03
2022-10-10T18:18:45.642Z,102089.81
2022-10-10T18:21:15.241Z,102077.41
2022-10-10T18:23:41.607Z,102084.13
2022-10-10T18:26:12.151Z,102082.97
2022-10-10T18:28:39.310Z,102097.88
2022-10-10T18:31:13.800Z,102105.06
2022-10-10T18:33:41.401Z,102089.72
2022-10-10T18:36:12.238Z,102107.06
2022-10-10T18:38:38.581Z,102106.91
2022-10-10T18:41:07.318Z,102108.22
2022-10-10T18:43:34.294Z,102113.28
2022-10-10T18:46:02.827Z,102111.16
2022-10-10T18:48:30.195Z,102110.69
2022-10-10T18:51:05.112Z,102126.38
2022-10-10T18:53:35.525Z,102123.59
2022-10-10T18:56:01.863Z,102133.72
2022-10-10T18:58:30.493Z,102133.56
2022-10-10T19:01:02.007Z,102135.84
2022-10-10T19:03:28.951Z,102130.75
2022-10-10T19:05:55.746Z,102135.81
2022-10-10T19:08:22.172Z,102132.41
2022-10-10T19:10:49.736Z,102144.16
2022-10-10T19:13:16.658Z,102150.16
2022-10-10T19:15:42.996Z,102153.59
2022-10-10T19:18:09.970Z,102152.94
2022-10-10T19:20:36.727Z,102145.03
2022-10-10T19:23:03.062Z,102148.81
2022-10-10T19:25:29.380Z,102170.22
2022-10-10T19:27:56.670Z,102155.97
2022-10-10T19:30:23.462Z,102159.03
2022-10-10T19:32:49.938Z,102152.50
2022-10-10T19:35:16.305Z,102167.22
2022-10-10T19:37:42.614Z,102178.31
2022-10-10T19:40:09.312Z,102185.13
2022-10-10T19:42:35.658Z,102181.38
2022-10-10T19:45:01.992Z,102179.88
2022-10-10T19:47:28.328Z,102189.16
2022-10-10T19:49:54.626Z,102190.44
2022-10-10T19:52:20.960Z,102200.41
2022-10-10T19:54:47.298Z,102212.47
2022-10-10T19:57:13.618Z,102214.56
2022-10-10T19:59:39.946Z,102196.72
2022-10-10T20:02:06.686Z,102202.22
2022-10-10T20:04:33.091Z,102210.72
2022-10-10T20:06:59.398Z,102217.59
2022-10-10T20:09:25.765Z,102220.50
2022-10-10T20:11:52.093Z,102225.72
2022-10-10T20:14:18.482Z,102230.94
2022-10-10T20:16:44.796Z,102217.16
2022-10-10T20:19:11.177Z,102233.88
2022-10-10T20:21:37.529Z,102238.09
2022-10-10T20:24:09.678Z,102245.59
2022-10-10T20:26:36.657Z,102246.09
2022-10-10T20:29:04.765Z,102247.88
2022-10-10T20:31:33.819Z,102248.47
2022-10-10T20:34:01.182Z,102258.91
2022-10-10T20:36:29.331Z,102254.63
2022-10-10T20:39:05.748Z,102264.69
2022-10-10T20:41:33.621Z,102267.00
2022-10-10T20:44:02.034Z,102262.53
2022-10-10T20:46:31.507Z,102259.72
2022-10-10T20:48:59.106Z,102268.03
2022-10-10T20:51:27.128Z,102282.50
2022-10-10T20:53:59.089Z,102285.34
2022-10-10T20:56:26.754Z,102284.06
2022-10-10T20:58:53.202Z,102273.63
2022-10-10T21:01:22.076Z,102285.56
2022-10-10T21:03:48.952Z,102283.06
2022-10-10T21:06:31.670Z,102296.81
2022-10-10T21:09:04.402Z,102298.34
2022-10-10T21:11:30.828Z,102296.75
2022-10-10T21:13:59.682Z,102297.81
2022-10-10T21:16:29.472Z,102302.34
2022-10-10T21:18:58.173Z,102305.94
2022-10-10T21:21:26.230Z,102311.81
2022-10-10T21:23:55.931Z,102300.50
2022-10-10T21:26:25.270Z,102315.69
2022-10-10T21:28:52.511Z,102319.91
2022-10-10T21:31:21.445Z,102314.91
2022-10-10T21:33:48.308Z,102319.56
2022-10-10T21:36:15.742Z,102324.53
2022-10-10T21:38:42.422Z,102327.41
2022-10-10T21:41:13.324Z,102331.91
2022-10-10T21:43:40.886Z,102323.19
2022-10-10T21:46:13.088Z,102331.66
2022-10-10T21:48:39.694Z,102332.22
2022-10-10T21:51:06.408Z,102339.50
2022-10-10T21:53:32.774Z,102329.47
2022-10-10T21:55:59.284Z,102339.63
2022-10-10T21:58:25.883Z,102341.81
2022-10-10T22:00:52.256Z,102339.75
2022-10-10T22:03:18.652Z,102343.16
2022-10-10T22:05:44.975Z,102355.22
2022-10-10T22:08:11.613Z,102362.91
2022-10-10T22:10:40.790Z,102366.31
2022-10-10T22:13:07.166Z,102359.28
2022-10-10T22:15:33.582Z,102360.66
2022-10-10T22:17:59.794Z,102367.50
2022-10-10T22:20:26.159Z,102351.50
2022-10-10T22:22:52.511Z,102361.47
2022-10-10T22:25:18.816Z,102375.03
2022-10-10T22:27:45.265Z,102383.91
2022-10-10T22:30:13.393Z,102369.38
2022-10-10T22:32:39.731Z,102376.59
2022-10-10T22:35:06.102Z,102398.09
2022-10-10T22:37:32.435Z,102389.06
2022-10-10T22:39:58.671Z,102392.03
2022-10-10T22:42:25.049Z,102386.81
2022-10-10T22:44:51.290Z,102397.63
2022-10-10T22:47:17.603Z,102405.56
2022-10-10T22:49:43.831Z,102404.06
2022-10-10T22:52:10.369Z,102408.31
2022-10-10T22:54:36.706Z,102402.16
2022-10-10T22:57:02.994Z,102409.28
2022-10-10T22:59:29.423Z,102404.91
2022-10-10T23:01:55.832Z,102393.94
2022-10-10T23:04:22.650Z,102402.19
2022-10-10T23:06:49.492Z,102393.00
2022-10-10T23:09:16.805Z,102405.31
2022-10-10T23:11:43.232Z,102409.16
2022-10-10T23:14:09.626Z,102407.22
2022-10-10T23:16:40.378Z,102404.00
2022-10-10T23:19:07.118Z,102407.56
2022-10-10T23:21:33.396Z,102413.03
2022-10-10T23:23:59.714Z,102410.53
2022-10-10T23:26:25.981Z,102413.97
2022-10-10T23:28:52.364Z,102410.25
2022-10-10T23:31:18.718Z,102413.53
2022-10-10T23:33:44.949Z,102417.78
2022-10-10T23:36:12.866Z,102414.09
2022-10-10T23:38:39.479Z,102418.50
2022-10-10T23:41:06.094Z,102417.63
2022-10-10T23:43:32.716Z,102418.72
2022-10-10T23:45:59.051Z,102411.63
2022-10-10T23:48:25.310Z,102428.19
2022-10-10T23:50:51.706Z,102423.22
2022-10-10T23:53:18.031Z,102422.09
2022-10-10T23:55:44.266Z,102429.75
2022-10-10T23:58:10.546Z,102426.16
